LPPD Airport Information

Runway Information
Runway 12 Length 8192 ft width 148 ft
Elevation 259 ft Threshold 0 ft Heading 112
Runway 30 Length 8192 ft Width 148 ft
Elevation 187 ft Threshold 787 ft Heading 292
Airport Frequencies
Type APP Name APP Frequency 119.4 MHZ
Type TWR Name TWR Frequency 118.3 MHZ
Airport Navaids
Type NDB Name Ponta Delgada Frequency 371 KHZ
Type NDB Name Ponta Delgada Frequency 351 KHZ
Type VORTAC Name Sao Miguel Frequency 114500 KHZ
Airport Weather Information & NOTAM
ADDS - METARS form results

(1355 UTC 27 July 2021)
Data provider http://aviationweather.gov/metar/data/
 
METAR text: LPPD 271330Z 03012KT 360V060 9999 VCSH FEW008 BKN012 23/21 Q1026
Conditions at: LPPD (PONTA DELGADA/NO, PT) observed 1330 UTC 27 July 2021
Temperature: 23.0°C (73°F)
Dewpoint: 21.0°C (70°F) [RH = 89%]
Pressure (altimeter): 30.30 inches Hg (1026.0 mb)
Winds: from the NNE (30 degrees) at 14 MPH (12 knots; 6.2 m/s)
Visibility: 6 or more miles (10+ km)
Ceiling: 1200 feet AGL
Clouds: few clouds at 800 feet AGL
broken clouds at 1200 feet AGL
Weather: VCSH  (showers in vicinity)

METAR text: LPPD 271300Z 03012KT 360V070 9999 VCSH SCT006 BKN012 24/20 Q1027
Conditions at: LPPD (PONTA DELGADA/NO, PT) observed 1300 UTC 27 July 2021
Temperature: 24.0°C (75°F)
Dewpoint: 20.0°C (68°F) [RH = 78%]
Pressure (altimeter): 30.32 inches Hg (1027.0 mb)
Winds: from the NNE (30 degrees) at 14 MPH (12 knots; 6.2 m/s)
Visibility: 6 or more miles (10+ km)
Ceiling: 1200 feet AGL
Clouds: scattered clouds at 600 feet AGL
broken clouds at 1200 feet AGL
Weather: VCSH  (showers in vicinity)

Forecast for: LPPD (PONTA DELGADA/NO, PT)
Text: TAF LPPD 271100Z 2712/2812 03012KT 9999 SCT012 BKN025
Forecast period: 1200 UTC 27 July 2021 to 1200 UTC 28 July 2021
Forecast type: FROM: standard forecast or significant change
Winds: from the NNE (30 degrees) at 14 MPH (12 knots; 6.2 m/s)
Visibility: 6 or more miles (10+ km)
Ceiling: 2500 feet AGL
Clouds: scattered clouds at 1200 feet AGL
broken clouds at 2500 feet AGL
Weather: no significant weather forecast for this period
Text: TEMPO 2712/2812 VRB05KT 5000 -RA BR SCT004 BKN008
Forecast period: 1200 UTC 27 July 2021 to 1200 UTC 28 July 2021
Forecast type: TEMPORARY: The following changes expected for less than half the time period
Winds: variable direction winds at 6 MPH (5 knots; 2.6 m/s)
Visibility: 3 miles (5 km)
Ceiling: 800 feet AGL
Clouds: scattered clouds at 400 feet AGL
broken clouds at 800 feet AGL
Weather: -RA BR  (light rain, mist)